• Join FlightAware (Why Join?)
  • Login
  • US Flag 
06:34PM EDT


 

Airport Tracker/Info


-or-


 

Live Flight TrackerFlight Track Log ✈ LOF3416 ✈ 27-Apr-2013 ✈ KSTL - KORD

Flight Track Log - Related Links

Times and Time Zones

All times are in EDT time to prevent confusion due to time zone crossing. See the LOF3416 flight status page for this flight to view local times or setup timezone preferences in your user account.

Time Position Orientation Groundspeed Altitude Reporting Facility
EDT Latitude Longitude Course Direction KTS MPH feet Rate Location/Type
04:51PM 38.7333 -90.2833 356° North 183 211 2,900  Level Gateway (St. Louis) TRACON
04:52PM 38.7667 -90.2333 49° Northeast 263 303 3,700 780 Climbing Gateway (St. Louis) TRACON
04:52PM 38.7889 -90.2319 North 252 290 4,000 900 Climbing Kansas City Center
04:53PM 38.8639 -90.2314 360° North 263 303 5,000 2,040 Climbing Kansas City Center
04:54PM 38.9381 -90.2000 North  Level FlightAware Approximate
04:54PM 38.9417 -90.2294 North 274 315 8,200  Level Kansas City Center
04:55PM 39.0211 -90.2004 356° North  Level FlightAware Approximate
04:56PM 39.1038 -90.2087 356° North  Level FlightAware Approximate
04:56PM 39.0214 -90.2275 North 284 327 10,600  Level Kansas City Center
04:57PM 39.1075 -90.2256 North 302 348 12,300 1,800 Climbing Kansas City Center
04:58PM 39.2197 -90.2231 North 333 383 14,300 1,800 Climbing Kansas City Center
04:59PM 39.3186 -90.2206 North 348 400 16,000 1,560 Climbing Kansas City Center
05:00PM 39.4186 -90.2133 North 358 412 17,600 1,500 Climbing Kansas City Center
05:01PM 39.5214 -90.1872 11° North 372 428 19,200 1,500 Climbing Kansas City Center
05:02PM 39.6239 -90.1617 11° North 375 432 20,800 840 Climbing Kansas City Center
05:03PM 39.7397 -90.1367 North 391 450 21,000 60 Climbing Kansas City Center
05:04PM 39.8575 -90.1081 11° North 422 486 21,000  Level Kansas City Center
05:05PM 39.9503 -90.0878 10° North 426 490 21,000  Level Chicago Center
05:06PM 40.0686 -90.0603 10° North 429 494 21,000  Level Chicago Center
05:07PM 40.1825 -90.0133 17° North 429 494 21,000  Level Chicago Center
05:08PM 40.2969 -89.9628 19° North 432 497 21,000  Level Chicago Center
05:09PM 40.4369 -89.9028 18° North 441 507 21,000  Level Chicago Center
05:10PM 40.5411 -89.8575 18° North 444 511 21,000  Level Chicago Center
05:11PM 40.6814 -89.7961 18° North 444 511 21,000  Level Chicago Center
05:12PM 40.7989 -89.7461 18° North 441 507 21,000  Level Chicago Center
05:13PM 40.9119 -89.6972 18° North 431 496 21,000  Level Chicago Center
05:14PM 41.0194 -89.6283 26° Northeast 426 490 21,000  Level Chicago Center
05:15PM 41.0889 -89.5050 53° Northeast 418 481 21,000 -600 Level Chicago Center
05:16PM 41.1567 -89.3803 54° Northeast 416 479 19,800 -1,200 Descending Chicago Center
05:17PM 41.2242 -89.2533 55° Northeast 419 482 18,600 -1,200 Descending Chicago Center
05:18PM 41.2981 -89.1131 55° Northeast 406 467 17,400 -1,260 Descending Chicago Center
05:19PM 41.3606 -88.9956 55° Northeast 392 451 16,100 -1,740 Descending Chicago Center
05:20PM 41.4200 -88.8839 55° Northeast 370 426 13,900 -2,400 Descending Chicago Center
05:21PM 41.4747 -88.7786 55° Northeast 348 400 11,300 -1,440 Descending Chicago Center
05:22PM 41.5208 -88.6867 56° Northeast 298 343 11,000 -180 Descending Chicago Center
05:23PM 41.5583 -88.5906 62° Northeast 291 335 11,000 -120 Level Chicago Center
05:24PM 41.5967 -88.4942 62° Northeast 294 338 10,800 -600 Descending Chicago Center
05:25PM 41.6411 -88.4097 55° Northeast 278 320 9,800 -1,200 Descending Chicago Center
05:26PM 41.7194 -88.3442 32° Northeast 286 329 8,400 -1,320 Descending Chicago Center
05:27PM 41.7942 -88.3150 16° North 281 323 7,200 -840 Descending Chicago Center
05:28PM 41.8672 -88.2881 15° North 272 313 6,700 -600 Descending Chicago Center
05:29PM 41.9383 -88.2561 18° North 270 311 6,000 -720 Descending Chicago Center